Observation data for Reese Center on 09/12/2017      Previous  Date       Current Mesonet Observations  Soil Data  Daily Summary Page  Observations in Plain Language
KREE 120500Z 12006KT 20/10 A3014 RMK A01 T02020101  RH  053%=      5-min Rain = 0
KREE 120505Z 12006KT 20/10 A3014 RMK A01 T02020099  RH  052%=      5-min Rain = 0
KREE 120510Z 12006KT 20/10 A3014 RMK A01 T02000098  RH  053%=      5-min Rain = 0
KREE 120515Z 12006KT 20/10 A3014 RMK A01 T01990097  RH  053%=      5-min Rain = 0
KREE 120520Z 12006KT 20/10 A3014 RMK A01 T01980096  RH  053%=      5-min Rain = 0
KREE 120525Z 12006KT 20/10 A3014 RMK A01 T01960095  RH  053%=      5-min Rain = 0
KREE 120530Z 12006KT 19/10 A3014 RMK A01 T01940096  RH  054%=      5-min Rain = 0
KREE 120535Z 12005KT 19/10 A3014 RMK A01 T01920096  RH  055%=      5-min Rain = 0
KREE 120540Z 12005KT 19/10 A3014 RMK A01 T01900096  RH  055%=      5-min Rain = 0
KREE 120545Z 12004KT 19/10 A3013 RMK A01 T01890096  RH  055%=      5-min Rain = 0
KREE 120550Z 13003KT 19/10 A3013 RMK A01 T01890095  RH  055%=      5-min Rain = 0
KREE 120555Z 12003KT 19/09 A3013 RMK A01 T01890094  RH  055%=      5-min Rain = 0
KREE 120600Z 11004KT 19/09 A3013 RMK A01 T01890094  RH  055%=      5-min Rain = 0
KREE 120605Z 11005KT 19/09 A3013 RMK A01 T01880094  RH  056%=      5-min Rain = 0
KREE 120610Z 11005KT 18/10 A3013 RMK A01 T01830096  RH  058%=      5-min Rain = 0
KREE 120615Z 11005KT 18/10 A3013 RMK A01 T01790096  RH  059%=      5-min Rain = 0
KREE 120620Z 12005KT 18/10 A3013 RMK A01 T01760096  RH  060%=      5-min Rain = 0
KREE 120625Z 12006KT 18/10 A3013 RMK A01 T01760096  RH  060%=      5-min Rain = 0
KREE 120630Z 12006KT 18/10 A3013 RMK A01 T01760095  RH  060%=      5-min Rain = 0
KREE 120635Z 12006KT 18/09 A3012 RMK A01 T01790094  RH  058%=      5-min Rain = 0
KREE 120640Z 12005KT 18/09 A3012 RMK A01 T01820093  RH  057%=      5-min Rain = 0
KREE 120645Z 13006KT 19/09 A3012 RMK A01 T01850093  RH  056%=      5-min Rain = 0
KREE 120650Z 13006KT 19/09 A3012 RMK A01 T01860093  RH  056%=      5-min Rain = 0
KREE 120655Z 13005KT 19/09 A3012 RMK A01 T01860093  RH  056%=      5-min Rain = 0
KREE 120700Z 13005KT 19/09 A3012 RMK A01 T01850093  RH  056%=      5-min Rain = 0
KREE 120705Z 14005KT 18/09 A3012 RMK A01 T01830093  RH  056%=      5-min Rain = 0
KREE 120710Z 14005KT 18/09 A3012 RMK A01 T01820093  RH  057%=      5-min Rain = 0
KREE 120715Z 14004KT 18/09 A3012 RMK A01 T01820093  RH  057%=      5-min Rain = 0
KREE 120720Z 15004KT 18/09 A3011 RMK A01 T01810093  RH  057%=      5-min Rain = 0
KREE 120725Z 16004KT 18/09 A3011 RMK A01 T01810092  RH  057%=      5-min Rain = 0
KREE 120730Z 15004KT 18/09 A3011 RMK A01 T01820092  RH  057%=      5-min Rain = 0
KREE 120735Z 15005KT 18/09 A3011 RMK A01 T01810093  RH  057%=      5-min Rain = 0
KREE 120740Z 14005KT 18/09 A3011 RMK A01 T01770093  RH  059%=      5-min Rain = 0
KREE 120745Z 14005KT 18/09 A3011 RMK A01 T01760093  RH  059%=      5-min Rain = 0
KREE 120750Z 14005KT 17/09 A3011 RMK A01 T01740093  RH  060%=      5-min Rain = 0
KREE 120755Z 15005KT 17/09 A3011 RMK A01 T01740092  RH  060%=      5-min Rain = 0
KREE 120800Z 16004KT 18/09 A3011 RMK A01 T01750092  RH  059%=      5-min Rain = 0
KREE 120805Z 18004KT 17/09 A3011 RMK A01 T01740093  RH  060%=      5-min Rain = 0
KREE 120810Z 19003KT 17/09 A3011 RMK A01 T01710094  RH  061%=      5-min Rain = 0
KREE 120815Z 24004KT 16/10 A3011 RMK A01 T01640096  RH  065%=      5-min Rain = 0
KREE 120820Z 23004KT 15/10 A3011 RMK A01 T01530097  RH  070%=      5-min Rain = 0
KREE 120825Z 24004KT 15/10 A3011 RMK A01 T01520097  RH  070%=      5-min Rain = 0
KREE 120830Z 24003KT 15/10 A3011 RMK A01 T01510097  RH  071%=      5-min Rain = 0
KREE 120835Z 24003KT 15/10 A3011 RMK A01 T01510097  RH  071%=      5-min Rain = 0
KREE 120840Z 24003KT 15/10 A3011 RMK A01 T01510097  RH  071%=      5-min Rain = 0
KREE 120845Z 25003KT 15/10 A3011 RMK A01 T01510097  RH  071%=      5-min Rain = 0
KREE 120850Z 27003KT 15/10 A3011 RMK A01 T01490098  RH  073%=      5-min Rain = 0
KREE 120855Z 27003KT 15/10 A301 RMK A01 T01460098  RH  074%=      5-min Rain = 0
KREE 120900Z 28003KT 14/10 A301 RMK A01 T01430097  RH  075%=      5-min Rain = 0
KREE 120905Z 29003KT 14/10 A301 RMK A01 T01420098  RH  076%=      5-min Rain = 0
KREE 120910Z 29002KT 14/10 A301 RMK A01 T01430099  RH  076%=      5-min Rain = 0
KREE 120915Z 29002KT 15/10 A301 RMK A01 T01470099  RH  074%=      5-min Rain = 0
KREE 120920Z 29003KT 15/10 A301 RMK A01 T01490098  RH  073%=      5-min Rain = 0
KREE 120925Z 30003KT 15/10 A301 RMK A01 T01460097  RH  074%=      5-min Rain = 0
KREE 120930Z 29003KT 14/10 A301 RMK A01 T01440098  RH  075%=      5-min Rain = 0
KREE 120935Z 29002KT 14/10 A301 RMK A01 T01430099  RH  076%=      5-min Rain = 0
KREE 120940Z 29003KT 14/10 A3009 RMK A01 T01430100  RH  076%=      5-min Rain = 0
KREE 120945Z 29003KT 14/10 A3009 RMK A01 T01440100  RH  076%=      5-min Rain = 0
KREE 120950Z 30002KT 14/10 A3009 RMK A01 T01440101  RH  077%=      5-min Rain = 0
KREE 120955Z 28001KT 15/10 A3009 RMK A01 T01450103  RH  077%=      5-min Rain = 0
KREE 121000Z 26001KT 15/10 A3009 RMK A01 T01460104  RH  077%=      5-min Rain = 0
KREE 121005Z 28001KT 15/10 A3009 RMK A01 T01460103  RH  077%=      5-min Rain = 0
KREE 121010Z 29002KT 15/10 A3009 RMK A01 T01450104  RH  077%=      5-min Rain = 0
KREE 121015Z 29002KT 15/10 A3009 RMK A01 T01450104  RH  078%=      5-min Rain = 0
KREE 121020Z 29002KT 14/10 A3009 RMK A01 T01440104  RH  079%=      5-min Rain = 0
KREE 121025Z 30003KT 14/10 A3009 RMK A01 T01420104  RH  079%=      5-min Rain = 0
KREE 121030Z 30003KT 14/10 A3009 RMK A01 T01410104  RH  080%=      5-min Rain = 0
KREE 121035Z 31004KT 14/10 A3009 RMK A01 T01390103  RH  080%=      5-min Rain = 0
KREE 121040Z 32003KT 14/10 A3009 RMK A01 T01380101  RH  079%=      5-min Rain = 0
KREE 121045Z 31004KT 14/10 A3009 RMK A01 T01380100  RH  079%=      5-min Rain = 0
KREE 121050Z 31004KT 14/10 A3009 RMK A01 T01360099  RH  080%=      5-min Rain = 0
KREE 121055Z 31005KT 14/10 A3009 RMK A01 T01350100  RH  081%=      5-min Rain = 0
KREE 121100Z 30005KT 13/10 A3009 RMK A01 T01330101  RH  082%=      5-min Rain = 0
KREE 121105Z 30005KT 13/10 A3009 RMK A01 T01320101  RH  082%=      5-min Rain = 0
KREE 121110Z 30005KT 13/10 A3009 RMK A01 T01340100  RH  081%=      5-min Rain = 0
KREE 121115Z 30004KT 14/10 A301 RMK A01 T01350100  RH  080%=      5-min Rain = 0
KREE 121120Z 31002KT 13/10 A301 RMK A01 T01340099  RH  081%=      5-min Rain = 0
KREE 121125Z 34002KT 13/10 A301 RMK A01 T01320098  RH  081%=      5-min Rain = 0
KREE 121130Z 00002KT 13/10 A3009 RMK A01 T01320099  RH  082%=      5-min Rain = 0
KREE 121135Z 01001KT 13/10 A3009 RMK A01 T01310098  RH  082%=      5-min Rain = 0
KREE 121140Z 01001KT 13/10 A3009 RMK A01 T01290098  RH  083%=      5-min Rain = 0
KREE 121145Z 00001KT 13/10 A3009 RMK A01 T01290099  RH  084%=      5-min Rain = 0
KREE 121150Z 34002KT 13/10 A3009 RMK A01 T01300100  RH  083%=      5-min Rain = 0
KREE 121155Z 32002KT 13/10 A3009 RMK A01 T01310099  RH  083%=      5-min Rain = 0
KREE 121200Z 32001KT 13/10 A3009 RMK A01 T01310099  RH  082%=      5-min Rain = 0
KREE 121205Z 34001KT 13/10 A3009 RMK A01 T01310099  RH  082%=      5-min Rain = 0
KREE 121210Z 35001KT 13/10 A301 RMK A01 T01310099  RH  082%=      5-min Rain = 0
KREE 121215Z 35000KT 13/10 A301 RMK A01 T01320101  RH  083%=      5-min Rain = 0
KREE 121220Z 35001KT 13/10 A301 RMK A01 T01330102  RH  082%=      5-min Rain = 0
KREE 121225Z 35001KT 13/10 A301 RMK A01 T01340102  RH  082%=      5-min Rain = 0
KREE 121230Z 35001KT 14/10 A301 RMK A01 T01360103  RH  082%=      5-min Rain = 0
KREE 121235Z 35000KT 14/10 A301 RMK A01 T01350099  RH  080%=      5-min Rain = 0
KREE 121240Z 00000KT 13/10 A301 RMK A01 T01320097  RH  081%=      5-min Rain = 0
KREE 121245Z 31000KT 13/10 A301 RMK A01 T01300096  RH  081%=      5-min Rain = 0
KREE 121250Z 30002KT 13/10 A301 RMK A01 T01290096  RH  082%=      5-min Rain = 0
KREE 121255Z 30002KT 13/10 A301 RMK A01 T01290098  RH  083%=      5-min Rain = 0
KREE 121300Z 30001KT 13/10 A301 RMK A01 T01310099  RH  082%=      5-min Rain = 0
KREE 121305Z 30001KT 14/10 A301 RMK A01 T01350101  RH  081%=      5-min Rain = 0
KREE 121310Z 32002KT 14/10 A301 RMK A01 T01380101  RH  080%=      5-min Rain = 0
KREE 121315Z 34002KT 14/10 A301 RMK A01 T01410103  RH  079%=      5-min Rain = 0
KREE 121320Z 35002KT 15/10 A301 RMK A01 T01460104  RH  077%=      5-min Rain = 0
KREE 121325Z 35001KT 15/11 A301 RMK A01 T01510107  RH  076%=      5-min Rain = 0
KREE 121330Z 35001KT 16/11 A301 RMK A01 T01570110  RH  075%=      5-min Rain = 0
KREE 121335Z 36001KT 16/11 A301 RMK A01 T01630110  RH  072%=      5-min Rain = 0
KREE 121340Z 00000KT 17/11 A301 RMK A01 T01680109  RH  069%=      5-min Rain = 0
KREE 121345Z 00000KT 17/11 A301 RMK A01 T01720111  RH  069%=      5-min Rain = 0
KREE 121350Z 00000KT 18/11 A301 RMK A01 T01750113  RH  068%=      5-min Rain = 0
KREE 121355Z 36001KT 18/11 A301 RMK A01 T01770110  RH  066%=      5-min Rain = 0
KREE 121400Z 35002KT 18/11 A301 RMK A01 T01790112  RH  066%=      5-min Rain = 0
KREE 121405Z 35001KT 18/12 A301 RMK A01 T01820116  RH  067%=      5-min Rain = 0
KREE 121410Z 35001KT 19/12 A301 RMK A01 T01870123  RH  068%=      5-min Rain = 0
KREE 121415Z 33001KT 19/12 A301 RMK A01 T01910122  RH  066%=      5-min Rain = 0
KREE 121420Z 33001KT 19/12 A301 RMK A01 T01920119  RH  064%=      5-min Rain = 0
KREE 121425Z 32002KT 20/12 A301 RMK A01 T01950120  RH  063%=      5-min Rain = 0
KREE 121430Z 30001KT 20/12 A301 RMK A01 T01990120  RH  062%=      5-min Rain = 0
KREE 121435Z 30002KT 20/12 A301 RMK A01 T02030118  RH  059%=      5-min Rain = 0
KREE 121440Z 31002KT 21/12 A301 RMK A01 T02080117  RH  057%=      5-min Rain = 0
KREE 121445Z 27001KT 21/12 A301 RMK A01 T02120120  RH  057%=      5-min Rain = 0
KREE 121450Z 28001KT 22/12 A301 RMK A01 T02170116  RH  054%=      5-min Rain = 0
KREE 121455Z 27001KT 22/11 A301 RMK A01 T02200112  RH  051%=      5-min Rain = 0
KREE 121500Z 28001KT 22/11 A301 RMK A01 T02240112  RH  050%=      5-min Rain = 0
KREE 121505Z 28001KT 23/12 A301 RMK A01 T02280115  RH  050%=      5-min Rain = 0
KREE 121510Z 29001KT 23/11 A301 RMK A01 T02310112  RH  048%=      5-min Rain = 0
KREE 121515Z 28002KT 23/11 A301 RMK A01 T02340111  RH  047%=      5-min Rain = 0
KREE 121520Z 27001KT 24/11 A301 RMK A01 T02370110  RH  046%=      5-min Rain = 0
KREE 121525Z 30001KT 24/11 A301 RMK A01 T02410110  RH  045%=      5-min Rain = 0
KREE 121530Z 29002KT 24/11 A301 RMK A01 T02430107  RH  043%=      5-min Rain = 0
KREE 121535Z 24002KT 24/11 A301 RMK A01 T02430107  RH  043%=      5-min Rain = 0
KREE 121540Z 20001KT 25/11 A301 RMK A01 T02480109  RH  042%=      5-min Rain = 0
KREE 121545Z 22001KT 25/11 A301 RMK A01 T02540109  RH  041%=      5-min Rain = 0
KREE 121550Z 27001KT 26/11 A301 RMK A01 T02570110  RH  040%=      5-min Rain = 0
KREE 121555Z 22002KT 26/11 A301 RMK A01 T02590108  RH  040%=      5-min Rain = 0
KREE 121600Z 22002KT 26/11 A301 RMK A01 T02630108  RH  039%=      5-min Rain = 0
KREE 121605Z 24003KT 26/10 A3009 RMK A01 T02600102  RH  038%=      5-min Rain = 0
KREE 121610Z 24003KT 26/10 A3009 RMK A01 T02580098  RH  037%=      5-min Rain = 0
KREE 121615Z 23000KT 26/10 A3009 RMK A01 T02630095  RH  035%=      5-min Rain = 0
KREE 121620Z 26003KT 27/10 A3009 RMK A01 T02690101  RH  035%=      5-min Rain = 0
KREE 121625Z 26004KT 27/10 A3009 RMK A01 T02690100  RH  035%=      5-min Rain = 0
KREE 121630Z 29002KT 27/10 A3009 RMK A01 T02680095  RH  034%=      5-min Rain = 0
KREE 121635Z 28002KT 27/09 A3009 RMK A01 T02720093  RH  033%=      5-min Rain = 0
KREE 121640Z 24003KT 27/10 A3009 RMK A01 T02740097  RH  034%=      5-min Rain = 0
KREE 121645Z 21002KT 28/09 A3009 RMK A01 T02750090  RH  032%=      5-min Rain = 0
KREE 121650Z 26003KT 28/09 A3008 RMK A01 T02800092  RH  031%=      5-min Rain = 0
KREE 121655Z 27004KT 28/09 A3008 RMK A01 T02780087  RH  031%=      5-min Rain = 0
KREE 121700Z 28004KT 28/09 A3008 RMK A01 T02800086  RH  030%=      5-min Rain = 0
KREE 121705Z 30004KT 28/08 A3008 RMK A01 T02830083  RH  029%=      5-min Rain = 0
KREE 121710Z 31003KT 29/08 A3008 RMK A01 T02850084  RH  029%=      5-min Rain = 0
KREE 121715Z 23005KT 28/09 A3008 RMK A01 T02840087  RH  030%=      5-min Rain = 0
KREE 121720Z 23004KT 29/09 A3007 RMK A01 T02850085  RH  029%=      5-min Rain = 0
KREE 121725Z 28005KT 29/08 A3007 RMK A01 T02880081  RH  028%=      5-min Rain = 0
KREE 121730Z 29006KT 29/08 A3007 RMK A01 T02880081  RH  028%=      5-min Rain = 0
KREE 121735Z 29005KT 29/08 A3007 RMK A01 T02890080  RH  027%=      5-min Rain = 0
KREE 121740Z 26005KT 29/08 A3006 RMK A01 T02930079  RH  027%=      5-min Rain = 0
KREE 121745Z 30005KT 30/08 A3006 RMK A01 T02960077  RH  026%=      5-min Rain = 0
KREE 121750Z 31008KT 30/07 A3006 RMK A01 T02960068  RH  024%=      5-min Rain = 0
KREE 121755Z 28004KT 30/06 A3006 RMK A01 T02960064  RH  024%=      5-min Rain = 0
KREE 121800Z 27008KT 30/07 A3006 RMK A01 T02970074  RH  025%=      5-min Rain = 0
KREE 121805Z 30006KT 30/07 A3005 RMK A01 T02980072  RH  025%=      5-min Rain = 0
KREE 121810Z 31006KT 30/08 A3005 RMK A01 T03010075  RH  025%=      5-min Rain = 0
KREE 121815Z 31007KT 30/07 A3005 RMK A01 T03020073  RH  024%=      5-min Rain = 0
KREE 121820Z 30005G10KT 30/07 A3005 RMK A01 T03020072  RH  024%=      5-min Rain = 0
KREE 121825Z 31007KT 31/08 A3005 RMK A01 T03070076  RH  024%=      5-min Rain = 0
KREE 121830Z 32007KT 31/07 A3004 RMK A01 T03070069  RH  023%=      5-min Rain = 0
KREE 121835Z 29003KT 31/07 A3004 RMK A01 T03090068  RH  022%=      5-min Rain = 0
KREE 121840Z 28005KT 31/07 A3004 RMK A01 T03100074  RH  023%=      5-min Rain = 0
KREE 121845Z 32006KT 31/07 A3003 RMK A01 T03130070  RH  022%=      5-min Rain = 0
KREE 121850Z 33007KT 31/07 A3003 RMK A01 T03130068  RH  022%=      5-min Rain = 0
KREE 121855Z 33005KT 32/07 A3003 RMK A01 T03150070  RH  022%=      5-min Rain = 0
KREE 121900Z 34003KT 32/07 A3003 RMK A01 T03160065  RH  021%=      5-min Rain = 0
KREE 121905Z 32007G13KT 32/07 A3003 RMK A01 T03160065  RH  021%=      5-min Rain = 0
KREE 121910Z 31004KT 32/07 A3002 RMK A01 T03160068  RH  022%=      5-min Rain = 0
KREE 121915Z 34005G11KT 32/07 A3002 RMK A01 T03190065  RH  021%=      5-min Rain = 0
KREE 121920Z 33006KT 32/07 A3002 RMK A01 T03180066  RH  021%=      5-min Rain = 0
KREE 121925Z 35003KT 32/07 A3001 RMK A01 T03220065  RH  020%=      5-min Rain = 0
KREE 121930Z 29007G12KT 32/06 A3001 RMK A01 T03230063  RH  020%=      5-min Rain = 0
KREE 121935Z 29009KT 32/07 A3001 RMK A01 T03220067  RH  021%=      5-min Rain = 0
KREE 121940Z 31006KT 32/07 A3001 RMK A01 T03200065  RH  021%=      5-min Rain = 0
KREE 121945Z 35004G9KT 32/06 A30 RMK A01 T03220062  RH  020%=      5-min Rain = 0
KREE 121950Z 30006G13KT 32/06 A30 RMK A01 T03240062  RH  020%=      5-min Rain = 0
KREE 121955Z 32005KT 32/06 A30 RMK A01 T03230064  RH  020%=      5-min Rain = 0
KREE 122000Z 27004G10KT 33/06 A2999 RMK A01 T03270063  RH  020%=      5-min Rain = 0
KREE 122005Z 35010G16KT 33/06 A2999 RMK A01 T03270063  RH  020%=      5-min Rain = 0
KREE 122010Z 36007G13KT 33/07 A2999 RMK A01 T03300065  RH  020%=      5-min Rain = 0
KREE 122015Z 33010KT 33/06 A2999 RMK A01 T03280064  RH  020%=      5-min Rain = 0
KREE 122020Z 33004KT 33/06 A2998 RMK A01 T03260059  RH  019%=      5-min Rain = 0
KREE 122025Z 33008G14KT 33/07 A2998 RMK A01 T03300066  RH  020%=      5-min Rain = 0
KREE 122030Z 33005KT 33/06 A2998 RMK A01 T03270060  RH  019%=      5-min Rain = 0
KREE 122035Z 36006G11KT 33/06 A2997 RMK A01 T03290063  RH  019%=      5-min Rain = 0
KREE 122040Z 33004KT 33/06 A2997 RMK A01 T03290062  RH  019%=      5-min Rain = 0
KREE 122045Z 35007G13KT 33/06 A2997 RMK A01 T03310060  RH  019%=      5-min Rain = 0
KREE 122050Z 34006KT 33/06 A2997 RMK A01 T03310062  RH  019%=      5-min Rain = 0
KREE 122055Z 31005KT 33/07 A2996 RMK A01 T03320066  RH  019%=      5-min Rain = 0
KREE 122100Z 29005KT 33/07 A2996 RMK A01 T03330068  RH  020%=      5-min Rain = 0
KREE 122105Z 33006G11KT 33/06 A2996 RMK A01 T03310060  RH  019%=      5-min Rain = 0
KREE 122110Z 33005KT 33/06 A2996 RMK A01 T03320058  RH  018%=      5-min Rain = 0
KREE 122115Z 34004KT 33/06 A2996 RMK A01 T03310055  RH  018%=      5-min Rain = 0
KREE 122120Z 35006KT 34/06 A2996 RMK A01 T03350063  RH  019%=      5-min Rain = 0
KREE 122125Z 33005G10KT 34/06 A2995 RMK A01 T03360059  RH  018%=      5-min Rain = 0
KREE 122130Z 30007KT 33/06 A2995 RMK A01 T03320064  RH  019%=      5-min Rain = 0
KREE 122135Z 29005KT 33/06 A2995 RMK A01 T03310061  RH  019%=      5-min Rain = 0
KREE 122140Z 32004KT 33/06 A2995 RMK A01 T03310060  RH  019%=      5-min Rain = 0
KREE 122145Z 30006G13KT 33/06 A2994 RMK A01 T03340063  RH  019%=      5-min Rain = 0
KREE 122150Z 29009G14KT 33/06 A2994 RMK A01 T03320064  RH  019%=      5-min Rain = 0
KREE 122155Z 30007KT 33/06 A2994 RMK A01 T03320061  RH  019%=      5-min Rain = 0
KREE 122200Z 30006KT 33/06 A2994 RMK A01 T03320055  RH  018%=      5-min Rain = 0
KREE 122205Z 28004KT 33/06 A2994 RMK A01 T03310056  RH  018%=      5-min Rain = 0
KREE 122210Z 29005KT 33/05 A2994 RMK A01 T03320053  RH  018%=      5-min Rain = 0
KREE 122215Z 01005KT 33/05 A2994 RMK A01 T03340047  RH  017%=      5-min Rain = 0
KREE 122220Z 36005KT 34/05 A2994 RMK A01 T03350049  RH  017%=      5-min Rain = 0
KREE 122225Z 34007G12KT 33/06 A2994 RMK A01 T03340057  RH  018%=      5-min Rain = 0
KREE 122230Z 35008KT 33/05 A2994 RMK A01 T03310054  RH  018%=      5-min Rain = 0
KREE 122235Z 35006G12KT 33/05 A2994 RMK A01 T03310052  RH  018%=      5-min Rain = 0
KREE 122240Z 33006KT 33/05 A2993 RMK A01 T03320054  RH  018%=      5-min Rain = 0
KREE 122245Z 33008KT 33/05 A2993 RMK A01 T03290052  RH  018%=      5-min Rain = 0
KREE 122250Z 33007KT 33/05 A2993 RMK A01 T03280050  RH  018%=      5-min Rain = 0
KREE 122255Z 34006KT 33/05 A2993 RMK A01 T03280051  RH  018%=      5-min Rain = 0
KREE 122300Z 33007KT 33/05 A2993 RMK A01 T03270052  RH  018%=      5-min Rain = 0
KREE 122305Z 33007KT 33/05 A2993 RMK A01 T03260053  RH  018%=      5-min Rain = 0
KREE 122310Z 32005KT 33/05 A2993 RMK A01 T03260049  RH  018%=      5-min Rain = 0
KREE 122315Z 34004KT 33/05 A2993 RMK A01 T03270049  RH  018%=      5-min Rain = 0
KREE 122320Z 33006KT 33/05 A2993 RMK A01 T03260054  RH  018%=      5-min Rain = 0
KREE 122325Z 32005KT 32/06 A2993 RMK A01 T03240055  RH  019%=      5-min Rain = 0
KREE 122330Z 31005KT 32/06 A2993 RMK A01 T03240058  RH  019%=      5-min Rain = 0
KREE 122335Z 29006KT 33/07 A2993 RMK A01 T03250065  RH  020%=      5-min Rain = 0
KREE 122340Z 29008KT 32/07 A2993 RMK A01 T03190069  RH  021%=      5-min Rain = 0
KREE 122345Z 29008KT 32/08 A2993 RMK A01 T03160075  RH  023%=      5-min Rain = 0
KREE 122350Z 29008KT 31/07 A2993 RMK A01 T03130074  RH  023%=      5-min Rain = 0
KREE 122355Z 29007KT 31/07 A2992 RMK A01 T03110072  RH  023%=      5-min Rain = 0
KREE 130000Z 29007KT 31/08 A2992 RMK A01 T03090076  RH  024%=      5-min Rain = 0
KREE 130005Z 29007KT 31/08 A2992 RMK A01 T03070077  RH  024%=      5-min Rain = 0
KREE 130010Z 29007KT 30/08 A2992 RMK A01 T03040079  RH  025%=      5-min Rain = 0
KREE 130015Z 28006KT 30/08 A2992 RMK A01 T03000078  RH  025%=      5-min Rain = 0
KREE 130020Z 28006KT 30/08 A2992 RMK A01 T02960080  RH  026%=      5-min Rain = 0
KREE 130025Z 28005KT 29/08 A2992 RMK A01 T02900082  RH  028%=      5-min Rain = 0
KREE 130030Z 28005KT 28/08 A2992 RMK A01 T02830081  RH  029%=      5-min Rain = 0
KREE 130035Z 28006KT 28/08 A2992 RMK A01 T02780078  RH  029%=      5-min Rain = 0
KREE 130040Z 28006KT 28/08 A2992 RMK A01 T02750080  RH  030%=      5-min Rain = 0
KREE 130045Z 28006KT 27/08 A2992 RMK A01 T02710082  RH  031%=      5-min Rain = 0
KREE 130050Z 29006KT 27/09 A2992 RMK A01 T02670085  RH  032%=      5-min Rain = 0
KREE 130055Z 29006KT 26/09 A2992 RMK A01 T02610087  RH  034%=      5-min Rain = 0
KREE 130100Z 29006KT 26/09 A2992 RMK A01 T02570088  RH  035%=      5-min Rain = 0
KREE 130105Z 29006KT 25/09 A2992 RMK A01 T02540088  RH  036%=      5-min Rain = 0
KREE 130110Z 29005KT 25/09 A2992 RMK A01 T02510089  RH  036%=      5-min Rain = 0
KREE 130115Z 29006KT 25/09 A2992 RMK A01 T02500088  RH  036%=      5-min Rain = 0
KREE 130120Z 29006KT 25/09 A2992 RMK A01 T02480091  RH  037%=      5-min Rain = 0
KREE 130125Z 29006KT 25/09 A2992 RMK A01 T02460093  RH  038%=      5-min Rain = 0
KREE 130130Z 29006KT 25/09 A2993 RMK A01 T02450094  RH  039%=      5-min Rain = 0
KREE 130135Z 30006KT 24/10 A2993 RMK A01 T02440095  RH  039%=      5-min Rain = 0
KREE 130140Z 30007KT 24/09 A2993 RMK A01 T02400094  RH  040%=      5-min Rain = 0
KREE 130145Z 30006KT 24/10 A2993 RMK A01 T02370096  RH  041%=      5-min Rain = 0
KREE 130150Z 31006KT 24/10 A2993 RMK A01 T02370095  RH  041%=      5-min Rain = 0
KREE 130155Z 31006KT 24/09 A2993 RMK A01 T02390093  RH  040%=      5-min Rain = 0
KREE 130200Z 31006KT 24/10 A2993 RMK A01 T02380095  RH  041%=      5-min Rain = 0
KREE 130205Z 31005KT 24/10 A2993 RMK A01 T02350097  RH  042%=      5-min Rain = 0
KREE 130210Z 32004KT 23/10 A2993 RMK A01 T02330098  RH  043%=      5-min Rain = 0
KREE 130215Z 01005KT 23/10 A2994 RMK A01 T02330099  RH  043%=      5-min Rain = 0
KREE 130220Z 03006KT 23/10 A2994 RMK A01 T02300102  RH  045%=      5-min Rain = 0
KREE 130225Z 04007KT 23/10 A2994 RMK A01 T02250101  RH  046%=      5-min Rain = 0
KREE 130230Z 04008KT 23/10 A2994 RMK A01 T02260096  RH  044%=      5-min Rain = 0
KREE 130235Z 04009KT 23/10 A2994 RMK A01 T02310096  RH  043%=      5-min Rain = 0
KREE 130240Z 05009KT 23/10 A2995 RMK A01 T02320099  RH  044%=      5-min Rain = 0
KREE 130245Z 05009KT 23/10 A2995 RMK A01 T02330102  RH  044%=      5-min Rain = 0
KREE 130250Z 06009KT 23/10 A2995 RMK A01 T02310104  RH  046%=      5-min Rain = 0
KREE 130255Z 07008KT 23/11 A2995 RMK A01 T02290106  RH  047%=      5-min Rain = 0
KREE 130300Z 08009KT 23/11 A2995 RMK A01 T02290106  RH  047%=      5-min Rain = 0
KREE 130305Z 09010KT 23/10 A2995 RMK A01 T02340102  RH  044%=      5-min Rain = 0
KREE 130310Z 10010KT 24/10 A2995 RMK A01 T02390099  RH  042%=      5-min Rain = 0
KREE 130315Z 11010KT 24/10 A2996 RMK A01 T02410097  RH  041%=      5-min Rain = 0
KREE 130320Z 11010KT 24/10 A2996 RMK A01 T02410096  RH  040%=      5-min Rain = 0
KREE 130325Z 11010KT 24/10 A2996 RMK A01 T02410095  RH  040%=      5-min Rain = 0
KREE 130330Z 11011KT 24/09 A2996 RMK A01 T02420094  RH  040%=      5-min Rain = 0
KREE 130335Z 11011KT 24/09 A2996 RMK A01 T02430093  RH  039%=      5-min Rain = 0
KREE 130340Z 11011KT 24/09 A2996 RMK A01 T02440093  RH  039%=      5-min Rain = 0
KREE 130345Z 10009KT 24/10 A2996 RMK A01 T02400095  RH  040%=      5-min Rain = 0
KREE 130350Z 10012KT 24/09 A2996 RMK A01 T02400093  RH  040%=      5-min Rain = 0
KREE 130355Z 10010KT 24/09 A2996 RMK A01 T02410094  RH  040%=      5-min Rain = 0
KREE 130400Z 11010KT 24/09 A2996 RMK A01 T02370094  RH  041%=      5-min Rain = 0
KREE 130405Z 10010KT 24/09 A2996 RMK A01 T02380094  RH  041%=      5-min Rain = 0
KREE 130410Z 10011KT 24/09 A2996 RMK A01 T02360094  RH  041%=      5-min Rain = 0
KREE 130415Z 10009KT 23/10 A2996 RMK A01 T02330096  RH  042%=      5-min Rain = 0
KREE 130420Z 10010KT 23/10 A2996 RMK A01 T02290096  RH  043%=      5-min Rain = 0
KREE 130425Z 09008KT 23/10 A2996 RMK A01 T02280097  RH  044%=      5-min Rain = 0
KREE 130430Z 10009KT 23/10 A2997 RMK A01 T02270097  RH  044%=      5-min Rain = 0
KREE 130435Z 10010KT 23/10 A2997 RMK A01 T02280097  RH  044%=      5-min Rain = 0
KREE 130440Z 10009KT 23/10 A2997 RMK A01 T02270097  RH  044%=      5-min Rain = 0
KREE 130445Z 10007KT 22/10 A2997 RMK A01 T02240098  RH  045%=      5-min Rain = 0
KREE 130450Z 11008KT 22/10 A2997 RMK A01 T02210098  RH  046%=      5-min Rain = 0
KREE 130455Z 10008KT 22/10 A2997 RMK A01 T02200098  RH  047%=      5-min Rain = 0

Page generated in 0.0092 seconds.